sensor_id;sensor_type;location;lat;lon;timestamp;pressure;altitude;pressure_sealevel;temperature;humidity
61740;BME280;47645;45.288;12.038;2023-04-21T00:00:28;1013.5743452983506;;;12.20078125;100
61740;BME280;47645;45.288;12.038;2023-04-21T00:10:29;1013.4923532610132;;;12.20078125;100
61740;BME280;47645;45.288;12.038;2023-04-21T00:20:30;1013.3509758111622;;;12.0884765625;100
61740;BME280;47645;45.288;12.038;2023-04-21T00:30:31;1013.2506846660893;;;12.1548828125;100
61740;BME280;47645;45.288;12.038;2023-04-21T00:40:31;1013.251183774189;;;12.2720703125;100
61740;BME280;47645;45.288;12.038;2023-04-21T00:50:32;1013.2060811976685;;;12.3638671875;100
61740;BME280;47645;45.288;12.038;2023-04-21T01:00:33;1013.201580982889;;;12.33828125;100
61740;BME280;47645;45.288;12.038;2023-04-21T01:10:33;1013.1548621857232;;;12.236328125;100
61740;BME280;47645;45.288;12.038;2023-04-21T01:20:35;1013.0983984468445;;;12.0833984375;100
61740;BME280;47645;45.288;12.038;2023-04-21T01:30:35;1013.047771927794;;;11.98671875;100
61740;BME280;47645;45.288;12.038;2023-04-21T01:40:36;1012.9917330666156;;;11.98671875;100
61740;BME280;47645;45.288;12.038;2023-04-21T01:50:36;1013.0513352008549;;;11.9357421875;100
61740;BME280;47645;45.288;12.038;2023-04-21T02:00:37;1012.9463393662035;;;11.8744140625;100
61740;BME280;47645;45.288;12.038;2023-04-21T02:10:38;1012.9501955752206;;;11.8642578125;100
61740;BME280;47645;45.288;12.038;2023-04-21T02:20:39;1012.9054258730932;;;11.7828125;100
61740;BME280;47645;45.288;12.038;2023-04-21T02:30:39;1012.937538864425;;;11.88984375;100
61740;BME280;47645;45.288;12.038;2023-04-21T02:40:40;1012.9378726069504;;;11.925390625;100
61740;BME280;47645;45.288;12.038;2023-04-21T02:50:42;1012.8619588303558;;;11.8439453125;100
61740;BME280;47645;45.288;12.038;2023-04-21T03:00:41;1012.8794910184231;;;12.0681640625;99.73347208695957
61740;BME280;47645;45.288;12.038;2023-04-21T03:10:42;1012.8865549290772;;;12.0478515625;99.46495598705852
61740;BME280;47645;45.288;12.038;2023-04-21T03:20:43;1012.8875415819173;;;12.0833984375;99.30317765334134
61740;BME280;47645;45.288;12.038;2023-04-21T03:30:44;1012.8653105698728;;;12.1599609375;98.78300311792543
61740;BME280;47645;45.288;12.038;2023-04-21T03:40:45;1012.8616981634186;;;12.205859375;95.8364002422313
61740;BME280;47645;45.288;12.038;2023-04-21T03:50:45;1012.9149346865097;;;12.333203125;98.16978040734307
61740;BME280;47645;45.288;12.038;2023-04-21T04:00:46;1012.954877735795;;;12.216015625;98.43556280808828
61740;BME280;47645;45.288;12.038;2023-04-21T04:10:47;1013.0255538299016;;;12.2515625;95.51534887140927
61740;BME280;47645;45.288;12.038;2023-04-21T04:20:47;1013.0221464861835;;;12.333203125;100
61740;BME280;47645;45.288;12.038;2023-04-21T04:30:48;1013.0474594016764;;;12.312890625;100
61740;BME280;47645;45.288;12.038;2023-04-21T04:40:52;1013.1394230974272;;;12.3791015625;100
61740;BME280;47645;45.288;12.038;2023-04-21T04:50:50;1013.211931684367;;;12.2822265625;100
61740;BME280;47645;45.288;12.038;2023-04-21T05:00:50;1013.2775919215093;;;12.353515625;100
61740;BME280;47645;45.288;12.038;2023-04-21T05:10:51;1013.420121864252;;;12.537109375;100
61740;BME280;47645;45.288;12.038;2023-04-21T05:20:52;1013.441529734703;;;12.64921875;100
61740;BME280;47645;45.288;12.038;2023-04-21T05:30:53;1013.4449545858735;;;12.64921875;100
61740;BME280;47645;45.288;12.038;2023-04-21T05:40:53;1013.5538395653163;;;13.0314453125;100
61740;BME280;47645;45.288;12.038;2023-04-21T05:50:54;1013.5537325188229;;;12.990625;100
61740;BME280;47645;45.288;12.038;2023-04-21T06:00:55;1013.662290840749;;;13.29140625;98.89971623666602
61740;BME280;47645;45.288;12.038;2023-04-21T06:10:56;1013.6480234675939;;;13.8826171875;95.95607249861091
61740;BME280;47645;45.288;12.038;2023-04-21T06:20:56;1013.6891493147617;;;14.132421875;92.45034655530526
61740;BME280;47645;45.288;12.038;2023-04-21T06:30:57;1013.7392462821815;;;14.443359375;88.80556470588178
61740;BME280;47645;45.288;12.038;2023-04-21T06:40:58;1013.7957154353081;;;14.9630859375;86.60282443386303
61740;BME280;47645;45.288;12.038;2023-04-21T06:51:00;1013.8067008651851;;;15.2486328125;83.2318638068037
61740;BME280;47645;45.288;12.038;2023-04-21T07:00:59;1013.9228440766975;;;15.615625;80.77670936979831
61740;BME280;47645;45.288;12.038;2023-04-21T07:11:00;1013.9331526433627;;;16.04375;78.99877945247769
61740;BME280;47645;45.288;12.038;2023-04-21T07:21:01;1013.8996726671346;;;16.48203125;77.17016701486693
61740;BME280;47645;45.288;12.038;2023-04-21T07:31:02;1013.9907167452121;;;16.8541015625;75.00920250324992
61740;BME280;47645;45.288;12.038;2023-04-21T07:41:03;1014.0485005674448;;;17.0427734375;72.94364916700346
61740;BME280;47645;45.288;12.038;2023-04-21T07:51:03;1014.1092550862337;;;17.292578125;71.6750677819184
61740;BME280;47645;45.288;12.038;2023-04-21T08:01:04;1014.2003459789411;;;17.3486328125;71.52664094771896
61740;BME280;47645;45.288;12.038;2023-04-21T08:11:06;1014.2420726642466;;;17.4861328125;71.45755095426138
61740;BME280;47645;45.288;12.038;2023-04-21T08:21:06;1014.2182135970403;;;17.8787109375;69.42083393004054
61740;BME280;47645;45.288;12.038;2023-04-21T08:31:07;1014.2339553645703;;;18.2353515625;69.08246726195092
61740;BME280;47645;45.288;12.038;2023-04-21T08:41:08;1014.328363295012;;;18.4443359375;66.00049505841572
61740;BME280;47645;45.288;12.038;2023-04-21T08:51:09;1014.3616778717812;;;19.19375;65.42514774738798
61740;BME280;47645;45.288;12.038;2023-04-21T09:01:10;1014.2740274199747;;;18.974609375;66.55492089087431
61740;BME280;47645;45.288;12.038;2023-04-21T09:11:13;1014.2957895311276;;;18.683984375;65.15735086140992
61740;BME280;47645;45.288;12.038;2023-04-21T09:21:14;1014.335537871481;;;18.4443359375;66.93039435802183
61740;BME280;47645;45.288;12.038;2023-04-21T09:31:14;1014.3108307279679;;;18.3271484375;66.55016002359531
61740;BME280;47645;45.288;12.038;2023-04-21T09:41:16;1014.3785069929284;;;18.9796875;65.10114311952277
61740;BME280;47645;45.288;12.038;2023-04-21T09:51:16;1014.4362753685385;;;19.1376953125;62.471854467091255
61740;BME280;47645;45.288;12.038;2023-04-21T10:01:16;1014.4559282922012;;;19.428125;61.46218406973806
61740;BME280;47645;45.288;12.038;2023-04-21T10:11:17;1014.4567779650625;;;19.744140625;58.98158399171729
61740;BME280;47645;45.288;12.038;2023-04-21T10:21:21;1014.4272986573777;;;19.9125;59.6276082155946
61740;BME280;47645;45.288;12.038;2023-04-21T10:31:22;1014.333197038547;;;20.8248046875;58.51922617580777
61740;BME280;47645;45.288;12.038;2023-04-21T10:41:26;1014.2207336009593;;;21.298828125;54.382221667310866
61740;BME280;47645;45.288;12.038;2023-04-21T10:51:21;1014.1810202681518;;;22.007421875;53.41157816178667
61740;BME280;47645;45.288;12.038;2023-04-21T11:01:23;1014.0884513909347;;;23.077734375;51.87788451506715
61740;BME280;47645;45.288;12.038;2023-04-21T11:11:24;1014.0420081953868;;;23.48046875;47.59876492277833
61740;BME280;47645;45.288;12.038;2023-04-21T11:21:28;1014.0225048120643;;;22.853515625;47.22587147618391
61740;BME280;47645;45.288;12.038;2023-04-21T11:31:27;1013.90612052652;;;24.805859375;47.46344945557751
61740;BME280;47645;45.288;12.038;2023-04-21T11:41:28;1013.935472136036;;;25.61640625;44.15243755859822
61740;BME280;47645;45.288;12.038;2023-04-21T11:51:33;1013.9406331841129;;;26.340234375;46.330518175041526
61740;BME280;47645;45.288;12.038;2023-04-21T12:01:31;1013.8842029864608;;;27.079296875;44.896111230919416
61740;BME280;47645;45.288;12.038;2023-04-21T12:11:33;1013.8931110377629;;;27.28828125;41.00595689565546
61740;BME280;47645;45.288;12.038;2023-04-21T12:21:37;1013.8634094613235;;;26.544140625;40.621972661392086
61740;BME280;47645;45.288;12.038;2023-04-21T12:31:35;1013.7925813701405;;;26.641015625;35.65812896591108
61740;BME280;47645;45.288;12.038;2023-04-21T12:41:37;1013.7753256388493;;;27.59921875;40.87748258763692
61740;BME280;47645;45.288;12.038;2023-04-21T12:51:38;1013.7946533253049;;;26.2841796875;35.86628049058229
61740;BME280;47645;45.288;12.038;2023-04-21T13:01:40;1013.6879000902883;;;26.8142578125;35.22427474375228
61740;BME280;47645;45.288;12.038;2023-04-21T13:11:41;1013.5327963111246;;;28.3486328125;38.83678778687797
61740;BME280;47645;45.288;12.038;2023-04-21T13:21:43;1013.498444586707;;;27.7625;36.211182860977594
61740;BME280;47645;45.288;12.038;2023-04-21T13:31:44;1013.5069318244673;;;29.0623046875;35.35239584058024
61740;BME280;47645;45.288;12.038;2023-04-21T13:41:46;1013.4798388335167;;;29.2560546875;41.30308184632968
61740;BME280;47645;45.288;12.038;2023-04-21T13:51:47;1013.388869724371;;;28.2466796875;39.60310082817756
61740;BME280;47645;45.288;12.038;2023-04-21T14:01:49;1013.295183102027;;;29.2611328125;40.711714819461285
61740;BME280;47645;45.288;12.038;2023-04-21T14:11:50;1013.222232626169;;;29.3478515625;40.58269575395075
61740;BME280;47645;45.288;12.038;2023-04-21T14:21:52;1013.1688275195929;;;29.011328125;32.81392481522948
61740;BME280;47645;45.288;12.038;2023-04-21T14:31:57;1013.0743874183386;;;29.490625;39.80306815104321
61740;BME280;47645;45.288;12.038;2023-04-21T14:41:54;1012.9924897621978;;;29.52109375;39.89081866478668
61740;BME280;47645;45.288;12.038;2023-04-21T15:01:57;1012.9566263014763;;;29.322265625;39.200260978378665
61740;BME280;47645;45.288;12.038;2023-04-21T15:11:59;1013.0026075949769;;;28.583203125;40.26257871677516
61740;BME280;47645;45.288;12.038;2023-04-21T15:22:01;1012.9713724259714;;;28.3078125;39.93014183842356
61740;BME280;47645;45.288;12.038;2023-04-21T15:32:02;1012.9127619563358;;;28.3078125;37.79032716885471
61740;BME280;47645;45.288;12.038;2023-04-21T15:42:04;1012.8354608916499;;;28.2466796875;39.71998466835499
61740;BME280;47645;45.288;12.038;2023-04-21T15:52:06;1012.8574867436082;;;27.981640625;43.65530501742756
61740;BME280;47645;45.288;12.038;2023-04-21T16:02:06;1012.8727428401352;;;27.594140625;43.484242834981536
61740;BME280;47645;45.288;12.038;2023-04-21T16:12:10;1012.8014231633985;;;26.982421875;46.19266558787986
61740;BME280;47645;45.288;12.038;2023-04-21T16:22:10;1012.8729568209493;;;26.43203125;47.93468023806128
61740;BME280;47645;45.288;12.038;2023-04-21T16:32:11;1012.8680581250055;;;25.835546875;37.66908239421249
61740;BME280;47645;45.288;12.038;2023-04-21T16:42:12;1012.9382214096026;;;25.01484375;38.98665753519981
61740;BME280;47645;45.288;12.038;2023-04-21T16:52:13;1012.9565849977804;;;24.0921875;38.36462855975159
61740;BME280;47645;45.288;12.038;2023-04-21T17:02:14;1012.9579736816772;;;23.5060546875;42.01005686565512
61740;BME280;47645;45.288;12.038;2023-04-21T17:12:16;1012.9449806377237;;;22.736328125;42.38224698764249
61740;BME280;47645;45.288;12.038;2023-04-21T17:22:17;1012.9527445902866;;;21.9564453125;43.575986584618576
61740;BME280;47645;45.288;12.038;2023-04-21T17:32:18;1013.0158469592253;;;21.0083984375;45.92846465110069
61740;BME280;47645;45.288;12.038;2023-04-21T17:42:19;1013.0853524306664;;;20.575;48.86865645320975
61740;BME280;47645;45.288;12.038;2023-04-21T17:52:20;1013.2291921987683;;;20.258984375;50.590808527534776
61740;BME280;47645;45.288;12.038;2023-04-21T18:02:21;1013.2670248512258;;;19.84609375;53.12955293648261
61740;BME280;47645;45.288;12.038;2023-04-21T18:12:23;1013.2751835937183;;;19.3568359375;55.53373790943517
61740;BME280;47645;45.288;12.038;2023-04-21T18:22:24;1013.3127926465028;;;19.08671875;57.27885721038619
61740;BME280;47645;45.288;12.038;2023-04-21T18:32:25;1013.3961741196441;;;18.8623046875;58.65893937747121
61740;BME280;47645;45.288;12.038;2023-04-21T18:42:26;1013.3745759587151;;;18.4953125;59.99565457214872
61740;BME280;47645;45.288;12.038;2023-04-21T18:52:27;1013.3983519295126;;;18.1947265625;61.378408852864524
61740;BME280;47645;45.288;12.038;2023-04-21T19:02:28;1013.381246208639;;;17.8837890625;61.907594757512605
61740;BME280;47645;45.288;12.038;2023-04-21T19:12:30;1013.3959071894466;;;17.5830078125;63.10596442165937
61740;BME280;47645;45.288;12.038;2023-04-21T19:22:31;1013.4442580930285;;;17.2822265625;64.43699690428531
61740;BME280;47645;45.288;12.038;2023-04-21T19:32:31;1013.5578346713129;;;17.2619140625;64.34527569972825
61740;BME280;47645;45.288;12.038;2023-04-21T19:42:32;1013.5705322969429;;;17.0580078125;65.2043055999205
61740;BME280;47645;45.288;12.038;2023-04-21T19:52:33;1013.6139169901828;;;16.777734375;65.92289851007894
61740;BME280;47645;45.288;12.038;2023-04-21T20:02:34;1013.6740747369045;;;16.487109375;66.36900672298282
61740;BME280;47645;45.288;12.038;2023-04-21T20:12:35;1013.7368791953274;;;16.1201171875;68.54549547672595
61740;BME280;47645;45.288;12.038;2023-04-21T20:22:36;1013.8184126388942;;;16.17109375;68.41953258508623
61740;BME280;47645;45.288;12.038;2023-04-21T20:32:37;1013.8314213137803;;;16.038671875;68.8789769157573
61740;BME280;47645;45.288;12.038;2023-04-21T20:42:38;1013.8120288235687;;;15.8857421875;69.66838176232952
61740;BME280;47645;45.288;12.038;2023-04-21T20:52:40;1013.869617809687;;;15.951953125;69.419413457048
61740;BME280;47645;45.288;12.038;2023-04-21T21:02:41;1013.8904761101812;;;15.7888671875;70.05483144425588
61740;BME280;47645;45.288;12.038;2023-04-21T21:12:41;1013.9678709558455;;;15.6716796875;70.92512531790614
61740;BME280;47645;45.288;12.038;2023-04-21T21:22:42;1014.056630619967;;;15.41171875;71.8748722357856
61740;BME280;47645;45.288;12.038;2023-04-21T21:32:43;1014.0865875537647;;;15.41171875;71.91910415556931
61740;BME280;47645;45.288;12.038;2023-04-21T21:42:44;1014.2495458966011;;;15.2689453125;72.81944818554993
61740;BME280;47645;45.288;12.038;2023-04-21T21:52:45;1014.2196187695854;;;15.2486328125;72.78939280708077
61740;BME280;47645;45.288;12.038;2023-04-21T22:02:46;1014.2186241525653;;;15.2384765625;72.36222471958321
61740;BME280;47645;45.288;12.038;2023-04-21T22:12:47;1014.1762742818714;;;15.116015625;73.27881080949321
61740;BME280;47645;45.288;12.038;2023-04-21T22:22:48;1014.1788143607907;;;15.019140625;75.06324697561556
61740;BME280;47645;45.288;12.038;2023-04-21T22:32:49;1014.3037245747539;;;14.9427734375;78.27568974680392
61740;BME280;47645;45.288;12.038;2023-04-21T22:42:50;1014.2909998166016;;;14.677734375;77.84936661434203
61740;BME280;47645;45.288;12.038;2023-04-21T22:52:51;1014.3521400894641;;;14.275;92.09051521163323
61740;BME280;47645;45.288;12.038;2023-04-21T23:02:52;1014.4092434825807;;;14.0865234375;87.5938972771584
61740;BME280;47645;45.288;12.038;2023-04-21T23:12:52;1014.3286374165853;;;14.239453125;81.07349980220562
61740;BME280;47645;45.288;12.038;2023-04-21T23:22:53;1014.3035443359388;;;14.5044921875;77.15559312083313
61740;BME280;47645;45.288;12.038;2023-04-21T23:32:54;1014.1812017982487;;;14.698046875;74.86127476739317
61740;BME280;47645;45.288;12.038;2023-04-21T23:42:55;1014.1152487993159;;;14.6115234375;74.55212539489662
61740;BME280;47645;45.288;12.038;2023-04-21T23:52:56;1014.0913005468664;;;14.5298828125;74.35523720184132
